createdAt,value
2022-11-19T00:01:31.971Z,97367.02
2022-11-19T00:03:58.464Z,97369.45
2022-11-19T00:06:26.942Z,97375.95
2022-11-19T00:08:54.474Z,97377.19
2022-11-19T00:11:24.425Z,97376.70
2022-11-19T00:13:50.814Z,97375.19
2022-11-19T00:16:17.249Z,97382.50
2022-11-19T00:18:43.648Z,97385.42
2022-11-19T00:21:13.375Z,97392.23
2022-11-19T00:23:40.738Z,97398.52
2022-11-19T00:26:15.105Z,97404.45
2022-11-19T00:28:42.232Z,97410.08
2022-11-19T00:31:11.873Z,97415.17
2022-11-19T00:33:40.074Z,97410.29
2022-11-19T00:36:09.257Z,97419.81
2022-11-19T00:38:35.712Z,97423.93
2022-11-19T00:41:02.365Z,97428.19
2022-11-19T00:43:29.099Z,97427.52
2022-11-19T00:45:55.642Z,97422.27
2022-11-19T00:48:22.064Z,97415.48
2022-11-19T00:50:48.518Z,97413.98
2022-11-19T00:53:14.926Z,97418.27
2022-11-19T00:55:41.420Z,97415.91
2022-11-19T00:58:07.976Z,97410.70
2022-11-19T01:00:34.516Z,97400.19
2022-11-19T01:03:01.012Z,97400.06
2022-11-19T01:05:27.481Z,97405.88
2022-11-19T01:07:54.296Z,97413.05
2022-11-19T01:10:20.715Z,97416.96
2022-11-19T01:12:47.143Z,97419.21
2022-11-19T01:15:13.617Z,97420.73
2022-11-19T01:17:40.152Z,97428.55
2022-11-19T01:20:07.662Z,97430.40
2022-11-19T01:22:34.145Z,97437.52
2022-11-19T01:25:00.695Z,97445.31
2022-11-19T01:27:27.284Z,97443.62
2022-11-19T01:29:53.654Z,97442.61
2022-11-19T01:32:20.122Z,97434.85
2022-11-19T01:34:46.657Z,97440.98
2022-11-19T01:37:13.037Z,97438.48
2022-11-19T01:39:39.428Z,97437.48
2022-11-19T01:42:06.273Z,97438.04
2022-11-19T01:45:00.258Z,97431.75
2022-11-19T01:47:27.406Z,97434.80
2022-11-19T01:49:54.540Z,97441.76
2022-11-19T01:52:22.338Z,97445.29
2022-11-19T01:54:55.736Z,97439.48
2022-11-19T01:57:22.581Z,97438.25
2022-11-19T01:59:52.015Z,97447.02
2022-11-19T02:02:19.867Z,97447.86
2022-11-19T02:04:47.202Z,97439.84
2022-11-19T02:07:14.243Z,97453.73
2022-11-19T02:09:41.485Z,97464.23
2022-11-19T02:12:32.136Z,97467.60
2022-11-19T02:15:22.137Z,97470.45
2022-11-19T02:18:06.689Z,97470.77
2022-11-19T02:21:05.383Z,97468.34
2022-11-19T02:24:09.511Z,97477.98
2022-11-19T02:26:42.197Z,97487.83
2022-11-19T02:29:26.871Z,97487.98
2022-11-19T02:32:01.180Z,97499.69
2022-11-19T02:34:34.507Z,97502.73
2022-11-19T02:37:10.440Z,97503.39
2022-11-19T02:39:46.098Z,97508.81
2022-11-19T02:42:18.478Z,97504.88
2022-11-19T02:44:48.428Z,97507.23
2022-11-19T02:47:22.474Z,97501.81
2022-11-19T02:49:53.480Z,97498.59
2022-11-19T02:52:20.829Z,97504.20
2022-11-19T02:54:47.874Z,97509.98
2022-11-19T02:57:14.620Z,97522.70
2022-11-19T02:59:48.868Z,97522.52
2022-11-19T03:02:18.779Z,97518.77
2022-11-19T03:04:45.213Z,97522.49
2022-11-19T03:07:17.490Z,97521.30
2022-11-19T03:09:57.535Z,97528.65
2022-11-19T03:12:36.266Z,97527.29
2022-11-19T03:15:23.600Z,97518.46
2022-11-19T03:18:13.893Z,97519.16
2022-11-19T03:20:50.483Z,97519.50
2022-11-19T03:23:32.679Z,97524.80
2022-11-19T03:26:26.051Z,97526.17
2022-11-19T03:28:55.283Z,97522.77
2022-11-19T03:31:25.995Z,97530.42
2022-11-19T03:33:57.286Z,97537.91
2022-11-19T03:36:30.157Z,97549.27
2022-11-19T03:39:02.046Z,97560.49
2022-11-19T03:41:29.773Z,97569.48
2022-11-19T03:44:09.966Z,97567.96
2022-11-19T03:46:39.736Z,97570.01
2022-11-19T03:49:08.325Z,97562.37
2022-11-19T03:51:40.716Z,97558.80
2022-11-19T03:54:08.433Z,97553.18
2022-11-19T03:56:39.020Z,97554.70
2022-11-19T03:59:08.462Z,97558.59
2022-11-19T04:01:35.276Z,97564.85
2022-11-19T04:04:01.732Z,97563.48
2022-11-19T04:06:28.256Z,97568.38
2022-11-19T04:08:54.676Z,97567.20
2022-11-19T04:13:46.547Z,97583.00
2022-11-19T04:16:13.203Z,97576.35
2022-11-19T04:18:39.628Z,97583.13
2022-11-19T04:21:06.269Z,97583.12
2022-11-19T04:23:32.741Z,97598.02
2022-11-19T04:25:59.254Z,97604.29
2022-11-19T04:28:25.898Z,97593.58
2022-11-19T04:30:52.346Z,97596.16
2022-11-19T04:33:18.730Z,97610.44
2022-11-19T04:35:46.399Z,97612.34
2022-11-19T04:38:12.919Z,97618.65
2022-11-19T04:40:39.323Z,97614.27
2022-11-19T04:43:05.759Z,97617.35
2022-11-19T04:45:32.572Z,97632.66
2022-11-19T04:47:58.995Z,97641.67
2022-11-19T04:50:25.584Z,97638.58
2022-11-19T04:52:51.999Z,97627.05
2022-11-19T04:55:18.427Z,97621.80
2022-11-19T04:57:44.848Z,97610.96
2022-11-19T05:00:12.154Z,97611.85
2022-11-19T05:02:38.550Z,97623.77
2022-11-19T05:05:05.655Z,97626.15
2022-11-19T05:07:32.236Z,97631.79
2022-11-19T05:09:58.724Z,97643.33
2022-11-19T05:12:25.264Z,97651.14
2022-11-19T05:14:51.703Z,97658.79
2022-11-19T05:17:18.245Z,97661.34
2022-11-19T05:19:44.711Z,97666.13
2022-11-19T05:22:11.090Z,97675.14
2022-11-19T05:24:37.547Z,97678.21
2022-11-19T05:27:04.366Z,97682.11
2022-11-19T05:29:30.955Z,97685.52
2022-11-19T05:31:57.382Z,97679.40
2022-11-19T05:34:23.931Z,97688.23
2022-11-19T05:36:50.367Z,97688.58
2022-11-19T05:39:21.817Z,97697.23
2022-11-19T05:41:48.918Z,97701.81
2022-11-19T05:44:15.355Z,97697.41
2022-11-19T05:46:41.760Z,97690.77
2022-11-19T05:49:08.293Z,97694.35
2022-11-19T05:51:35.267Z,97699.44
2022-11-19T05:54:01.747Z,97705.56
2022-11-19T05:56:28.243Z,97710.15
2022-11-19T05:58:54.654Z,97712.18
2022-11-19T06:01:28.596Z,97717.63
2022-11-19T06:03:55.909Z,97725.10
2022-11-19T06:06:23.126Z,97723.40
2022-11-19T06:08:50.449Z,97722.89
2022-11-19T06:11:17.378Z,97719.83
2022-11-19T06:13:43.780Z,97721.86
2022-11-19T06:16:10.274Z,97726.94
2022-11-19T06:18:36.658Z,97736.77
2022-11-19T06:21:11.930Z,97745.60
2022-11-19T06:23:38.722Z,97749.48
2022-11-19T06:26:08.197Z,97750.80
2022-11-19T06:28:34.645Z,97754.52
2022-11-19T06:31:01.390Z,97753.83
2022-11-19T06:33:27.941Z,97755.19
2022-11-19T06:35:54.879Z,97754.15
2022-11-19T06:38:21.423Z,97750.20
2022-11-19T06:40:48.170Z,97759.88
2022-11-19T06:43:14.603Z,97762.60
2022-11-19T06:45:41.118Z,97768.67
2022-11-19T06:48:07.683Z,97771.21
2022-11-19T06:50:34.124Z,97775.59
2022-11-19T06:53:00.622Z,97775.91
2022-11-19T06:55:27.111Z,97783.52
2022-11-19T06:57:53.559Z,97787.77
2022-11-19T07:00:20.283Z,97789.44
2022-11-19T07:02:47.323Z,97793.14
2022-11-19T07:05:13.763Z,97806.56
2022-11-19T07:07:40.300Z,97811.64
2022-11-19T07:10:07.449Z,97815.70
2022-11-19T07:12:33.859Z,97822.14
2022-11-19T07:15:04.322Z,97828.39
2022-11-19T07:17:31.319Z,97830.89
2022-11-19T07:19:58.746Z,97827.05
2022-11-19T07:22:25.286Z,97826.79
2022-11-19T07:24:51.753Z,97829.63
2022-11-19T07:27:18.264Z,97837.73
2022-11-19T07:29:44.764Z,97841.27
2022-11-19T07:32:11.181Z,97845.64
2022-11-19T07:34:37.593Z,97852.23
2022-11-19T07:37:04.092Z,97853.02
2022-11-19T07:39:30.470Z,97856.25
2022-11-19T07:41:57.001Z,97859.30
2022-11-19T07:44:23.635Z,97856.02
2022-11-19T07:46:50.214Z,97856.27
2022-11-19T07:49:17.211Z,97856.52
2022-11-19T07:51:44.177Z,97856.84
2022-11-19T07:54:12.189Z,97861.39
2022-11-19T07:56:38.690Z,97858.95
2022-11-19T07:59:05.430Z,97857.64
2022-11-19T08:01:31.908Z,97857.75
2022-11-19T08:03:58.310Z,97862.87
2022-11-19T08:06:28.160Z,97865.92
2022-11-19T08:08:55.797Z,97868.46
2022-11-19T08:11:23.225Z,97869.98
2022-11-19T08:13:49.696Z,97872.51
2022-11-19T08:16:17.567Z,97867.98
2022-11-19T08:18:44.502Z,97873.16
2022-11-19T08:21:12.285Z,97875.80
2022-11-19T08:23:39.517Z,97879.79
2022-11-19T08:26:07.513Z,97877.11
2022-11-19T08:28:34.054Z,97881.02
2022-11-19T08:31:08.536Z,97875.77
2022-11-19T08:33:35.838Z,97873.26
2022-11-19T08:36:02.889Z,97878.48
2022-11-19T08:38:32.278Z,97880.30
2022-11-19T08:41:01.022Z,97881.64
2022-11-19T08:43:27.528Z,97877.16
2022-11-19T08:45:54.078Z,97878.11
2022-11-19T08:48:20.518Z,97883.35
2022-11-19T08:50:47.144Z,97882.94
2022-11-19T08:53:13.685Z,97882.10
2022-11-19T08:55:40.267Z,97888.92
2022-11-19T08:58:07.789Z,97887.92
2022-11-19T09:00:36.442Z,97884.75
2022-11-19T09:03:03.126Z,97887.28
2022-11-19T09:05:29.506Z,97888.98
2022-11-19T09:07:55.940Z,97891.73
2022-11-19T09:10:22.619Z,97894.45
2022-11-19T09:12:49.274Z,97892.11
2022-11-19T09:15:16.009Z,97896.24
2022-11-19T09:17:46.562Z,97897.57
2022-11-19T09:20:13.552Z,97901.02
2022-11-19T09:22:40.045Z,97896.24
2022-11-19T09:25:07.154Z,97899.69
2022-11-19T09:27:33.740Z,97901.05
2022-11-19T09:30:00.183Z,97898.11
2022-11-19T09:32:28.488Z,97903.38
2022-11-19T09:34:55.108Z,97900.88
2022-11-19T09:37:21.560Z,97902.66
2022-11-19T09:39:48.090Z,97901.35
2022-11-19T09:42:39.716Z,97904.27
2022-11-19T09:45:26.223Z,97904.94
2022-11-19T09:48:07.893Z,97902.17
2022-11-19T09:50:41.232Z,97906.68
2022-11-19T09:53:15.441Z,97908.63
2022-11-19T09:55:45.383Z,97912.86
2022-11-19T09:58:37.928Z,97909.59
2022-11-19T10:01:04.691Z,97911.58
2022-11-19T10:03:33.823Z,97915.67
2022-11-19T10:06:00.498Z,97913.16
2022-11-19T10:08:33.131Z,97911.83
2022-11-19T10:11:50.924Z,97914.25
2022-11-19T10:15:05.453Z,97909.35
2022-11-19T10:17:47.089Z,97910.35
2022-11-19T10:20:16.576Z,97912.02
2022-11-19T10:22:57.663Z,97913.99
2022-11-19T10:25:39.308Z,97917.40
2022-11-19T10:28:13.898Z,97919.30
2022-11-19T10:30:46.782Z,97915.80
2022-11-19T10:33:47.159Z,97916.04
2022-11-19T10:36:24.813Z,97917.33
2022-11-19T10:39:10.303Z,97919.73
2022-11-19T10:41:49.287Z,97914.98
2022-11-19T10:44:23.720Z,97915.65
2022-11-19T10:46:50.908Z,97915.77
2022-11-19T10:49:17.644Z,97918.34
2022-11-19T10:51:44.601Z,97922.64
2022-11-19T10:54:23.101Z,97920.55
2022-11-19T10:56:52.239Z,97915.06
2022-11-19T10:59:27.067Z,97913.58
2022-11-19T11:02:02.119Z,97911.76
2022-11-19T11:04:29.971Z,97913.25
2022-11-19T11:06:59.304Z,97911.02
2022-11-19T11:09:37.546Z,97909.74
2022-11-19T11:12:22.678Z,97911.14
2022-11-19T11:14:49.817Z,97914.04
2022-11-19T11:17:28.646Z,97909.23
2022-11-19T11:20:00.518Z,97903.06
2022-11-19T11:22:27.888Z,97903.52
2022-11-19T11:24:54.814Z,97900.84
2022-11-19T11:27:29.091Z,97901.38
2022-11-19T11:30:25.071Z,97899.79
2022-11-19T11:32:51.646Z,97904.58
2022-11-19T11:35:32.186Z,97913.70
2022-11-19T11:38:01.560Z,97922.55
2022-11-19T11:40:29.543Z,97924.38
2022-11-19T11:42:56.206Z,97925.68
2022-11-19T11:45:32.744Z,97928.02
2022-11-19T11:48:08.330Z,97930.36
2022-11-19T11:50:37.023Z,97937.23
2022-11-19T11:53:09.298Z,97940.35
2022-11-19T11:55:35.941Z,97942.45
2022-11-19T11:58:05.345Z,97943.29
2022-11-19T12:00:40.798Z,97946.12
2022-11-19T12:03:09.961Z,97944.77
2022-11-19T12:06:16.496Z,97943.48
2022-11-19T12:09:03.086Z,97938.73
2022-11-19T12:11:47.630Z,97943.55
2022-11-19T12:14:19.109Z,97945.66
2022-11-19T12:16:48.511Z,97951.34
2022-11-19T12:19:26.931Z,97954.85
2022-11-19T12:22:02.275Z,97962.21
2022-11-19T12:24:59.948Z,97959.48
2022-11-19T12:27:26.318Z,97958.77
2022-11-19T12:30:15.868Z,97958.84
2022-11-19T12:33:05.153Z,97962.78
2022-11-19T12:35:46.732Z,97960.30
2022-11-19T12:38:15.939Z,97957.28
2022-11-19T12:40:53.129Z,97958.02
2022-11-19T12:43:43.016Z,97965.05
2022-11-19T12:46:27.981Z,97970.19
2022-11-19T12:49:29.635Z,97971.75
2022-11-19T12:51:56.021Z,97971.99
2022-11-19T12:54:59.718Z,97975.66
2022-11-19T12:57:47.149Z,97980.06
2022-11-19T13:00:19.829Z,97979.10
2022-11-19T13:03:04.591Z,97982.67
2022-11-19T13:05:41.551Z,97979.27
2022-11-19T13:08:35.307Z,97977.87
2022-11-19T13:11:33.726Z,97979.27
2022-11-19T13:14:03.280Z,97977.00
2022-11-19T13:16:33.651Z,97981.45
2022-11-19T13:19:39.462Z,97978.39
2022-11-19T13:22:17.862Z,97980.73
2022-11-19T13:24:59.764Z,97980.70
2022-11-19T13:27:28.462Z,97982.30
2022-11-19T13:30:02.568Z,97988.08
2022-11-19T13:32:59.086Z,97995.25
2022-11-19T13:35:43.375Z,98001.05
2022-11-19T13:38:31.122Z,98007.22
2022-11-19T13:41:24.658Z,98010.23
2022-11-19T13:43:54.416Z,98009.95
2022-11-19T13:46:34.349Z,98005.78
2022-11-19T13:49:07.546Z,98003.36
2022-11-19T13:51:44.640Z,98001.56
2022-11-19T13:54:40.013Z,98006.78
2022-11-19T13:57:09.470Z,98011.29
2022-11-19T13:59:47.776Z,98013.00
2022-11-19T14:02:55.785Z,98018.44
2022-11-19T14:05:35.738Z,98018.77
2022-11-19T14:08:14.535Z,98021.23
2022-11-19T14:10:49.202Z,98020.63
2022-11-19T14:13:44.418Z,98024.59
2022-11-19T14:16:19.827Z,98024.73
2022-11-19T14:18:54.538Z,98022.34
2022-11-19T14:21:24.472Z,98023.82
2022-11-19T14:23:50.949Z,98031.14
2022-11-19T14:26:42.501Z,98037.45
2022-11-19T14:29:18.538Z,98034.80
2022-11-19T14:32:00.184Z,98038.10
2022-11-19T14:34:30.344Z,98038.67
2022-11-19T14:37:00.897Z,98039.28
2022-11-19T14:39:38.916Z,98039.70
2022-11-19T14:42:18.025Z,98043.67
2022-11-19T14:45:13.987Z,98044.08
2022-11-19T14:47:42.304Z,98034.27
2022-11-19T14:50:21.668Z,98032.45
2022-11-19T14:52:57.855Z,98030.59
2022-11-19T14:55:30.477Z,98031.30
2022-11-19T14:58:04.144Z,98031.35
2022-11-19T15:00:37.014Z,98034.67
2022-11-19T15:03:07.404Z,98035.77
2022-11-19T15:05:40.330Z,98040.60
2022-11-19T15:08:18.871Z,98035.89
2022-11-19T15:11:06.499Z,98042.56
2022-11-19T15:13:35.497Z,98043.80
2022-11-19T15:16:05.795Z,98046.90
2022-11-19T15:18:41.345Z,98048.77
2022-11-19T15:21:13.750Z,98049.28
2022-11-19T15:24:04.293Z,98047.58
2022-11-19T15:26:36.534Z,98020.52
2022-11-19T15:29:22.428Z,98014.04
2022-11-19T15:32:39.452Z,98020.49
2022-11-19T15:35:19.794Z,98024.23
2022-11-19T15:37:51.249Z,98019.81
2022-11-19T15:40:23.732Z,98038.88
2022-11-19T15:43:02.030Z,98041.45
2022-11-19T15:45:36.582Z,98040.94
2022-11-19T15:48:17.970Z,98011.36
2022-11-19T15:50:45.101Z,98004.92
2022-11-19T15:53:23.355Z,98012.08
2022-11-19T15:55:58.305Z,98002.27
2022-11-19T15:58:28.535Z,98008.05
2022-11-19T16:00:55.888Z,98008.43
2022-11-19T16:03:23.284Z,98016.12
2022-11-19T16:06:01.453Z,98017.52
2022-11-19T16:08:28.542Z,98012.58
2022-11-19T16:10:55.436Z,98011.90
2022-11-19T16:13:26.566Z,98008.18
2022-11-19T16:15:54.581Z,98016.06
2022-11-19T16:18:21.099Z,98017.66
2022-11-19T16:20:51.444Z,98022.97
2022-11-19T16:23:24.045Z,98030.66
2022-11-19T16:25:51.342Z,98028.48
2022-11-19T16:28:29.778Z,98022.85
2022-11-19T16:31:04.597Z,98025.88
2022-11-19T16:33:32.917Z,98025.50
2022-11-19T16:36:17.444Z,98026.66
2022-11-19T16:38:48.029Z,98034.95
2022-11-19T16:41:17.801Z,98040.37
2022-11-19T16:43:45.569Z,98035.76
2022-11-19T16:46:15.831Z,98035.88
2022-11-19T16:48:42.340Z,98033.14
2022-11-19T16:51:32.225Z,98034.13
2022-11-19T16:53:59.165Z,98029.16
2022-11-19T16:56:26.927Z,98032.55
2022-11-19T16:58:59.135Z,98034.05
2022-11-19T17:01:29.663Z,98032.50
2022-11-19T17:04:06.470Z,98029.25
2022-11-19T17:06:36.137Z,98043.02
2022-11-19T17:09:05.032Z,98048.13
2022-11-19T17:11:50.102Z,98040.29
2022-11-19T17:14:16.540Z,98021.91
2022-11-19T17:16:51.486Z,98034.84
2022-11-19T17:19:30.837Z,98040.58
2022-11-19T17:22:01.853Z,98031.89
2022-11-19T17:24:34.443Z,98035.44
2022-11-19T17:27:00.986Z,98042.90
2022-11-19T17:29:27.731Z,98034.39
2022-11-19T17:31:55.706Z,98030.63
2022-11-19T17:34:27.771Z,98034.18
2022-11-19T17:36:54.178Z,98037.07
2022-11-19T17:39:25.151Z,98037.75
2022-11-19T17:41:55.582Z,98036.20
2022-11-19T17:44:25.913Z,98036.38
2022-11-19T17:46:52.354Z,98034.84
2022-11-19T17:49:18.837Z,98043.16
2022-11-19T17:51:45.274Z,98040.77
2022-11-19T17:54:11.963Z,98044.84
2022-11-19T17:56:38.519Z,98039.86
2022-11-19T17:59:04.961Z,98028.60
2022-11-19T18:01:31.514Z,98021.42
2022-11-19T18:03:58.143Z,98030.29
2022-11-19T18:06:24.695Z,98039.64
2022-11-19T18:08:51.652Z,98042.70
2022-11-19T18:11:21.652Z,98047.64
2022-11-19T18:13:51.703Z,98050.88
2022-11-19T18:16:23.881Z,98051.90
2022-11-19T18:18:51.314Z,98051.57
2022-11-19T18:21:20.413Z,98045.10
2022-11-19T18:23:48.715Z,98038.45
2022-11-19T18:26:18.078Z,98038.11
2022-11-19T18:28:47.754Z,98030.96
2022-11-19T18:31:19.122Z,98035.44
2022-11-19T18:33:46.031Z,98036.30
2022-11-19T18:36:12.486Z,98031.23
2022-11-19T18:38:39.088Z,98026.69
2022-11-19T18:41:05.710Z,98024.05
2022-11-19T18:43:36.193Z,98027.00
2022-11-19T18:46:05.501Z,98034.91
2022-11-19T18:48:31.901Z,98032.27
2022-11-19T18:50:58.302Z,98026.38
2022-11-19T18:53:24.802Z,98022.85
2022-11-19T18:55:52.227Z,98017.48
2022-11-19T18:58:18.719Z,98019.42
2022-11-19T19:00:45.310Z,98025.63
2022-11-19T19:03:11.859Z,98021.98
2022-11-19T19:05:39.106Z,98025.98
2022-11-19T19:08:06.000Z,98015.02
2022-11-19T19:10:33.548Z,98011.21
2022-11-19T19:13:00.276Z,98018.60
2022-11-19T19:15:26.819Z,98028.46
2022-11-19T19:17:53.556Z,98034.25
2022-11-19T19:20:20.007Z,98031.39
2022-11-19T19:22:46.538Z,98014.96
2022-11-19T19:25:12.983Z,98011.61
2022-11-19T19:27:39.495Z,98013.73
2022-11-19T19:30:06.664Z,98015.48
2022-11-19T19:32:33.061Z,98016.05
2022-11-19T19:34:59.645Z,98014.23
2022-11-19T19:37:26.185Z,98009.00
2022-11-19T19:39:52.728Z,98001.39
2022-11-19T19:42:19.271Z,98000.41
2022-11-19T19:44:45.800Z,98004.67
2022-11-19T19:47:12.338Z,98013.18
2022-11-19T19:49:39.273Z,98020.48
2022-11-19T19:52:05.934Z,98016.27
2022-11-19T19:54:32.335Z,98015.92
2022-11-19T19:56:58.915Z,98013.58
2022-11-19T19:59:25.437Z,98018.69
2022-11-19T20:01:51.959Z,98016.83
2022-11-19T20:04:18.527Z,98016.00
2022-11-19T20:06:46.835Z,98016.19
2022-11-19T20:09:13.623Z,98026.04
2022-11-19T20:11:40.194Z,98024.87
2022-11-19T20:14:07.243Z,98027.25
2022-11-19T20:16:34.932Z,98026.59
2022-11-19T20:19:02.195Z,98029.15
2022-11-19T20:21:31.868Z,98028.98
2022-11-19T20:23:58.523Z,98027.11
2022-11-19T20:26:30.618Z,98026.77
2022-11-19T20:28:59.998Z,98024.23
2022-11-19T20:31:27.463Z,98025.26
2022-11-19T20:33:57.372Z,98026.95
2022-11-19T20:36:25.667Z,98026.10
2022-11-19T20:38:52.715Z,98031.38
2022-11-19T20:41:21.613Z,98035.43
2022-11-19T20:43:52.644Z,98037.46
2022-11-19T20:46:21.710Z,98035.95
2022-11-19T20:48:49.318Z,98040.18
2022-11-19T20:51:15.992Z,98041.71
2022-11-19T20:53:43.046Z,98047.46
2022-11-19T20:56:09.738Z,98051.87
2022-11-19T20:58:36.178Z,98060.34
2022-11-19T21:01:08.464Z,98060.00
2022-11-19T21:03:35.008Z,98049.85
2022-11-19T21:06:04.061Z,98046.98
2022-11-19T21:08:31.880Z,98040.02
2022-11-19T21:11:01.693Z,98030.20
2022-11-19T21:13:28.645Z,98035.46
2022-11-19T21:15:57.230Z,98033.60
2022-11-19T21:18:24.642Z,98030.04
2022-11-19T21:20:52.134Z,98030.71
2022-11-19T21:23:19.114Z,98026.66
2022-11-19T21:25:45.972Z,98029.20
2022-11-19T21:28:12.571Z,98031.22
2022-11-19T21:30:38.997Z,98025.31
2022-11-19T21:33:05.578Z,98025.30
2022-11-19T21:35:31.990Z,98023.95
2022-11-19T21:37:58.550Z,98025.98
2022-11-19T21:40:25.092Z,98025.98
2022-11-19T21:42:52.066Z,98020.06
2022-11-19T21:45:18.590Z,98021.25
2022-11-19T21:47:45.316Z,98023.45
2022-11-19T21:50:11.957Z,98020.72
2022-11-19T21:52:38.498Z,98017.17
2022-11-19T21:55:05.860Z,98017.69
2022-11-19T21:57:32.296Z,98013.27
2022-11-19T21:59:58.837Z,98014.29
2022-11-19T22:02:25.376Z,98015.13
2022-11-19T22:04:51.911Z,98011.23
2022-11-19T22:07:18.323Z,98015.80
2022-11-19T22:09:45.094Z,98023.94
2022-11-19T22:12:11.634Z,98035.63
2022-11-19T22:14:38.010Z,98038.68
2022-11-19T22:17:04.614Z,98037.52
2022-11-19T22:19:31.045Z,98029.55
2022-11-19T22:21:57.593Z,98027.85
2022-11-19T22:24:24.338Z,98028.52
2022-11-19T22:26:50.886Z,98029.70
2022-11-19T22:29:17.273Z,98030.03
2022-11-19T22:31:43.854Z,98039.35
2022-11-19T22:34:12.033Z,98042.07
2022-11-19T22:36:38.615Z,98038.52
2022-11-19T22:39:05.062Z,98038.67
2022-11-19T22:41:31.555Z,98032.75
2022-11-19T22:43:58.600Z,98032.91
2022-11-19T22:46:25.140Z,98030.73
2022-11-19T22:48:51.929Z,98028.00
2022-11-19T22:51:21.296Z,98022.74
2022-11-19T22:53:50.041Z,98024.61
2022-11-19T22:56:19.690Z,98031.73
2022-11-19T22:58:46.889Z,98024.77
2022-11-19T23:01:28.232Z,98024.77
2022-11-19T23:03:56.507Z,98021.70
2022-11-19T23:06:23.642Z,98021.86
2022-11-19T23:08:51.302Z,98031.52
2022-11-19T23:11:20.521Z,98034.73
2022-11-19T23:13:47.113Z,98027.42
2022-11-19T23:16:16.548Z,98020.63
2022-11-19T23:18:48.164Z,98011.12
2022-11-19T23:21:16.025Z,98003.67
2022-11-19T23:23:42.913Z,98003.67
2022-11-19T23:26:12.287Z,98002.52
2022-11-19T23:28:39.871Z,97998.44
2022-11-19T23:31:14.122Z,97990.65
2022-11-19T23:33:41.023Z,97991.52
2022-11-19T23:36:12.590Z,97992.71
2022-11-19T23:38:39.626Z,97997.46
2022-11-19T23:41:09.942Z,97987.14
2022-11-19T23:43:37.654Z,97982.06
2022-11-19T23:46:09.936Z,97977.33
2022-11-19T23:48:38.178Z,97974.27
2022-11-19T23:51:07.602Z,97974.27
2022-11-19T23:53:34.641Z,97979.70
2022-11-19T23:56:01.490Z,97977.48
2022-11-19T23:58:28.649Z,97981.23
